createdAt,value
2019-05-07T00:02:28.366Z,10.90
2019-05-07T00:04:57.530Z,10.77
2019-05-07T00:07:25.346Z,10.60
2019-05-07T00:09:53.129Z,10.40
2019-05-07T00:12:23.064Z,11.90
2019-05-07T00:15:00.660Z,12.00
2019-05-07T00:17:22.844Z,11.93
2019-05-07T00:19:52.539Z,11.83
2019-05-07T00:22:22.692Z,12.03
2019-05-07T00:24:52.178Z,12.13
2019-05-07T00:27:22.425Z,11.43
2019-05-07T00:29:49.449Z,12.13
2019-05-07T00:32:17.578Z,12.10
2019-05-07T00:34:49.617Z,11.77
2019-05-07T00:37:43.154Z,11.03
2019-05-07T00:40:32.012Z,11.20
2019-05-07T00:43:13.288Z,11.87
2019-05-07T00:45:52.868Z,11.57
2019-05-07T00:48:20.828Z,11.90
2019-05-07T00:50:52.535Z,11.17
2019-05-07T00:53:19.917Z,11.80
2019-05-07T00:55:48.183Z,11.57
2019-05-07T00:58:15.892Z,11.37
2019-05-07T01:00:43.832Z,11.40
2019-05-07T01:03:12.856Z,11.90
2019-05-07T01:05:43.035Z,12.93
2019-05-07T01:08:10.541Z,11.90
2019-05-07T01:10:38.572Z,11.80
2019-05-07T01:13:06.781Z,11.40
2019-05-07T01:15:34.847Z,10.40
2019-05-07T01:18:03.035Z,11.50
2019-05-07T01:20:32.892Z,11.40
2019-05-07T01:23:02.639Z,10.67
2019-05-07T01:25:32.698Z,10.30
2019-05-07T01:28:02.461Z,11.10
2019-05-07T01:30:32.287Z,11.07
2019-05-07T01:33:09.006Z,11.00
2019-05-07T01:35:54.704Z,11.77
2019-05-07T01:38:23.596Z,11.87
2019-05-07T01:40:52.107Z,11.50
2019-05-07T01:43:22.647Z,10.80
2019-05-07T01:45:52.889Z,11.23
2019-05-07T01:48:20.232Z,11.07
2019-05-07T01:50:47.875Z,12.70
2019-05-07T01:53:15.804Z,11.67
2019-05-07T01:55:43.479Z,13.17
2019-05-07T01:58:12.557Z,12.80
2019-05-07T02:00:42.408Z,12.73
2019-05-07T02:03:19.855Z,13.50
2019-05-07T02:05:57.900Z,12.40
2019-05-07T02:08:57.122Z,13.40
2019-05-07T02:11:32.543Z,11.53
2019-05-07T02:14:01.918Z,11.80
2019-05-07T02:16:29.710Z,12.00
2019-05-07T02:18:57.812Z,11.47
2019-05-07T02:21:25.609Z,11.90
2019-05-07T02:23:53.953Z,12.40
2019-05-07T02:26:22.687Z,11.40
2019-05-07T02:28:51.853Z,12.83
2019-05-07T02:31:19.897Z,12.93
2019-05-07T02:33:47.577Z,12.67
2019-05-07T02:36:16.318Z,12.00
2019-05-07T02:38:49.209Z,12.63
2019-05-07T02:41:23.169Z,12.90
2019-05-07T02:43:49.781Z,12.63
2019-05-07T02:46:31.908Z,12.30
2019-05-07T02:49:05.032Z,12.83
2019-05-07T02:51:37.904Z,12.57
2019-05-07T02:54:36.759Z,12.07
2019-05-07T02:57:05.041Z,12.30
2019-05-07T02:59:33.816Z,12.80
2019-05-07T03:02:03.686Z,12.70
2019-05-07T03:04:33.407Z,12.40
2019-05-07T03:07:03.811Z,12.60
2019-05-07T03:09:32.875Z,12.80
2019-05-07T03:12:03.871Z,12.57
2019-05-07T03:14:32.413Z,11.93
2019-05-07T03:17:03.024Z,12.70
2019-05-07T03:19:33.106Z,12.67
2019-05-07T03:22:03.742Z,13.97
2019-05-07T03:24:45.000Z,12.67
2019-05-07T03:27:14.280Z,13.57
2019-05-07T03:29:45.484Z,13.23
2019-05-07T03:32:36.494Z,13.70
2019-05-07T03:35:07.426Z,12.30
2019-05-07T03:37:36.505Z,12.83
2019-05-07T03:40:05.618Z,13.67
2019-05-07T03:42:33.817Z,13.50
2019-05-07T03:45:26.529Z,13.30
2019-05-07T03:48:04.855Z,13.30
2019-05-07T03:50:33.770Z,13.13
2019-05-07T03:53:02.980Z,13.53
2019-05-07T03:55:33.271Z,13.00
2019-05-07T03:58:03.201Z,13.20
2019-05-07T04:00:33.212Z,13.30
2019-05-07T04:03:03.437Z,11.67
2019-05-07T04:05:33.885Z,12.77
2019-05-07T04:08:03.369Z,12.20
2019-05-07T04:10:33.454Z,13.00
2019-05-07T04:13:04.212Z,13.27
2019-05-07T04:15:32.864Z,12.50
2019-05-07T04:18:03.293Z,12.60
2019-05-07T04:20:29.663Z,12.70
2019-05-07T04:22:57.970Z,13.00
2019-05-07T04:25:56.826Z,13.20
2019-05-07T04:28:53.711Z,13.90
2019-05-07T04:31:23.014Z,13.50
2019-05-07T04:33:53.148Z,13.17
2019-05-07T04:36:24.367Z,12.60
2019-05-07T04:38:53.182Z,12.40
2019-05-07T04:41:23.372Z,12.93
2019-05-07T04:43:54.147Z,13.30
2019-05-07T04:46:23.578Z,14.00
2019-05-07T04:48:53.007Z,12.60
2019-05-07T04:51:33.638Z,13.90
2019-05-07T04:54:03.510Z,12.77
2019-05-07T04:56:33.467Z,13.47
2019-05-07T04:59:27.349Z,13.57
2019-05-07T05:02:04.568Z,13.87
2019-05-07T05:04:34.918Z,14.47
2019-05-07T05:07:02.777Z,14.23
2019-05-07T05:09:32.933Z,14.30
2019-05-07T05:12:02.674Z,15.60
2019-05-07T05:14:33.726Z,14.27
2019-05-07T05:20:29.684Z,13.70
2019-05-07T05:23:28.851Z,14.00
2019-05-07T05:25:57.218Z,15.83
2019-05-07T05:28:25.466Z,15.00
2019-05-07T05:30:55.828Z,16.00
2019-05-07T05:33:23.675Z,15.87
2019-05-07T05:35:52.549Z,15.23
2019-05-07T05:38:22.175Z,15.87
2019-05-07T05:40:52.035Z,15.60
2019-05-07T05:43:35.829Z,15.30
2019-05-07T05:46:12.514Z,15.57
2019-05-07T05:48:42.504Z,15.83
2019-05-07T05:51:38.537Z,16.17
2019-05-07T05:54:28.637Z,14.70
2019-05-07T05:57:03.158Z,15.27
2019-05-07T06:00:02.575Z,16.27
2019-05-07T06:02:39.752Z,15.43
2019-05-07T06:05:35.861Z,14.63
2019-05-07T06:08:17.588Z,15.00
2019-05-07T06:11:13.196Z,15.40
2019-05-07T06:13:52.699Z,15.40
2019-05-07T06:16:23.885Z,16.13
2019-05-07T06:19:16.668Z,15.20
2019-05-07T06:22:02.151Z,15.40
2019-05-07T06:24:37.919Z,15.37
2019-05-07T06:27:06.033Z,16.40
2019-05-07T06:29:34.004Z,14.90
2019-05-07T06:32:03.723Z,15.87
2019-05-07T06:34:34.502Z,15.00
2019-05-07T06:37:02.498Z,14.60
2019-05-07T06:39:37.492Z,14.93
2019-05-07T06:42:33.126Z,14.47
2019-05-07T06:45:04.701Z,14.77
2019-05-07T06:47:38.041Z,13.90
2019-05-07T06:50:07.228Z,14.57
2019-05-07T06:52:35.194Z,14.53
2019-05-07T06:55:03.447Z,14.00
2019-05-07T06:57:33.537Z,16.27
2019-05-07T07:00:04.569Z,15.40
2019-05-07T07:02:47.698Z,14.70
2019-05-07T07:05:33.881Z,14.57
2019-05-07T07:08:06.428Z,13.60
2019-05-07T07:10:52.280Z,13.47
2019-05-07T07:13:22.761Z,14.77
2019-05-07T07:15:52.163Z,14.00
2019-05-07T07:18:22.889Z,14.83
2019-05-07T07:20:52.316Z,14.97
2019-05-07T07:23:22.450Z,14.53
2019-05-07T07:25:52.097Z,15.90
2019-05-07T07:28:21.892Z,14.83
2019-05-07T07:31:17.813Z,15.33
2019-05-07T07:33:46.138Z,17.20
2019-05-07T07:36:14.337Z,17.50
2019-05-07T07:38:42.252Z,17.33
2019-05-07T07:41:33.055Z,16.20
2019-05-07T07:44:02.093Z,18.27
2019-05-07T07:46:32.789Z,17.90
2019-05-07T07:49:07.840Z,18.40
2019-05-07T07:51:40.555Z,16.90
2019-05-07T07:53:59.623Z,18.87
2019-05-07T07:56:56.666Z,17.37
2019-05-07T07:59:42.402Z,16.40
2019-05-07T08:02:23.001Z,17.47
2019-05-07T08:04:52.760Z,17.17
2019-05-07T08:07:22.844Z,16.47
2019-05-07T08:09:52.040Z,16.33
2019-05-07T08:12:21.861Z,15.63
2019-05-07T08:14:51.892Z,15.87
2019-05-07T08:17:19.497Z,15.90
2019-05-07T08:19:47.856Z,16.30
2019-05-07T08:22:15.876Z,17.30
2019-05-07T08:24:43.800Z,16.50
2019-05-07T08:27:12.905Z,15.30
2019-05-07T08:29:43.022Z,15.57
2019-05-07T08:32:29.660Z,17.30
2019-05-07T08:35:05.910Z,16.43
2019-05-07T08:37:33.974Z,16.00
2019-05-07T08:40:03.099Z,15.43
2019-05-07T08:42:33.198Z,15.63
2019-05-07T08:45:24.917Z,15.77
2019-05-07T08:47:54.746Z,15.13
2019-05-07T08:50:22.380Z,17.10
2019-05-07T08:52:52.144Z,17.30
2019-05-07T08:55:21.755Z,16.27
2019-05-07T08:57:52.104Z,16.83
2019-05-07T09:00:22.407Z,17.90
2019-05-07T09:02:52.338Z,17.60
2019-05-07T09:05:22.115Z,16.50
2019-05-07T09:07:51.728Z,17.23
2019-05-07T09:10:22.352Z,16.10
2019-05-07T09:12:52.540Z,17.87
2019-05-07T09:15:22.490Z,16.33
2019-05-07T09:17:52.531Z,15.67
2019-05-07T09:20:22.699Z,15.80
2019-05-07T09:22:51.810Z,15.10
2019-05-07T09:25:22.132Z,16.10
2019-05-07T09:27:52.361Z,16.03
2019-05-07T09:30:39.383Z,15.93
2019-05-07T09:33:17.793Z,14.23
2019-05-07T09:35:48.020Z,16.13
2019-05-07T09:38:16.023Z,15.40
2019-05-07T09:40:44.018Z,15.73
2019-05-07T09:43:12.147Z,13.67
2019-05-07T09:45:42.054Z,14.80
2019-05-07T09:48:11.786Z,14.47
2019-05-07T09:50:39.661Z,14.90
2019-05-07T09:53:07.767Z,13.97
2019-05-07T09:55:38.371Z,13.40
2019-05-07T09:58:06.772Z,15.17
2019-05-07T10:00:34.837Z,14.70
2019-05-07T10:03:02.958Z,14.80
2019-05-07T10:05:32.090Z,14.50
2019-05-07T10:08:01.690Z,13.87
2019-05-07T10:10:29.368Z,14.80
2019-05-07T10:13:12.348Z,15.00
2019-05-07T10:15:41.847Z,14.40
2019-05-07T10:18:14.512Z,13.40
2019-05-07T10:20:42.477Z,13.53
2019-05-07T10:23:22.416Z,13.37
2019-05-07T10:25:53.483Z,14.37
2019-05-07T10:28:22.780Z,13.67
2019-05-07T10:30:52.090Z,12.43
2019-05-07T10:33:22.705Z,12.87
2019-05-07T10:35:50.034Z,13.30
2019-05-07T10:38:19.063Z,13.53
2019-05-07T10:40:46.724Z,13.80
2019-05-07T10:43:14.605Z,13.40
2019-05-07T10:46:02.274Z,13.73
2019-05-07T10:48:43.398Z,11.57
2019-05-07T10:51:14.338Z,12.37
2019-05-07T10:53:43.089Z,12.10
2019-05-07T10:56:11.873Z,11.23
2019-05-07T10:58:41.759Z,11.77
2019-05-07T11:01:12.065Z,12.43
2019-05-07T11:03:40.216Z,11.60
2019-05-07T11:06:08.664Z,12.10
2019-05-07T11:08:36.677Z,11.80
2019-05-07T11:11:04.369Z,11.60
2019-05-07T11:13:32.203Z,12.20
2019-05-07T11:16:07.298Z,11.90
2019-05-07T11:18:39.739Z,10.20
2019-05-07T11:21:08.091Z,10.83
2019-05-07T11:23:35.833Z,10.37
2019-05-07T11:26:03.477Z,10.70
2019-05-07T11:28:32.297Z,10.70
2019-05-07T11:31:02.066Z,10.30
2019-05-07T11:33:32.333Z,10.40
2019-05-07T11:36:02.142Z,10.33
2019-05-07T11:38:33.084Z,10.80
2019-05-07T11:41:02.293Z,9.93
2019-05-07T11:43:49.109Z,11.50
2019-05-07T11:46:41.949Z,8.40
2019-05-07T11:49:18.736Z,8.37
2019-05-07T11:51:54.847Z,7.40
2019-05-07T11:54:23.241Z,7.10
2019-05-07T11:56:51.985Z,7.90
2019-05-07T11:59:22.054Z,7.30
2019-05-07T12:01:54.052Z,8.17
2019-05-07T12:04:22.481Z,9.17
2019-05-07T12:06:52.079Z,8.40
2019-05-07T12:09:21.799Z,9.57
2019-05-07T12:11:51.926Z,10.50
2019-05-07T12:14:30.549Z,9.70
2019-05-07T12:16:49.641Z,9.43
2019-05-07T12:19:17.639Z,9.10
2019-05-07T12:21:45.914Z,9.23
2019-05-07T12:24:16.386Z,9.47
2019-05-07T12:26:44.017Z,9.30
2019-05-07T12:29:12.218Z,8.80
2019-05-07T12:32:05.240Z,9.40
2019-05-07T12:34:48.745Z,10.67
2019-05-07T12:37:16.948Z,10.20
2019-05-07T12:39:45.450Z,10.00
2019-05-07T12:42:13.701Z,9.93
2019-05-07T12:44:42.462Z,9.90
2019-05-07T12:47:12.088Z,10.13
2019-05-07T12:49:40.305Z,10.57
2019-05-07T12:52:19.028Z,10.77
2019-05-07T12:54:57.425Z,9.60
2019-05-07T12:57:25.696Z,10.70
2019-05-07T12:59:53.847Z,8.27
2019-05-07T13:02:41.096Z,7.70
2019-05-07T13:05:07.036Z,7.87
2019-05-07T13:07:48.303Z,8.13
2019-05-07T13:10:16.793Z,7.70
2019-05-07T13:12:44.844Z,7.63
2019-05-07T13:15:23.882Z,7.90
2019-05-07T13:17:42.691Z,7.70
2019-05-07T13:20:12.185Z,6.87
2019-05-07T13:22:42.724Z,6.70
2019-05-07T13:25:10.487Z,8.40
2019-05-07T13:27:40.229Z,8.37
2019-05-07T13:30:08.281Z,8.40
2019-05-07T13:32:36.725Z,7.97
2019-05-07T13:35:05.154Z,9.30
2019-05-07T13:37:34.868Z,9.43
2019-05-07T13:40:16.704Z,8.10
2019-05-07T13:43:12.539Z,8.10
2019-05-07T13:45:49.058Z,7.77
2019-05-07T13:48:22.546Z,7.23
2019-05-07T13:50:52.063Z,7.90
2019-05-07T13:53:20.115Z,7.97
2019-05-07T13:55:48.329Z,8.37
2019-05-07T13:58:16.256Z,8.87
2019-05-07T14:01:18.397Z,8.70
2019-05-07T14:03:46.644Z,8.20
2019-05-07T14:06:34.512Z,8.60
2019-05-07T14:09:03.068Z,8.17
2019-05-07T14:11:32.231Z,7.23
2019-05-07T14:14:01.829Z,8.10
2019-05-07T14:16:29.767Z,8.70
2019-05-07T14:18:58.300Z,7.30
2019-05-07T14:21:26.562Z,7.60
2019-05-07T14:23:55.770Z,7.23
2019-05-07T14:26:24.288Z,6.63
2019-05-07T14:28:52.644Z,7.47
2019-05-07T14:31:20.537Z,7.17
2019-05-07T14:34:02.978Z,7.57
2019-05-07T14:36:38.947Z,5.97
2019-05-07T14:39:07.902Z,6.30
2019-05-07T14:41:36.172Z,6.10
2019-05-07T14:44:12.116Z,6.73
2019-05-07T14:46:45.636Z,6.70
2019-05-07T14:49:13.481Z,6.90
2019-05-07T14:51:41.792Z,6.70
2019-05-07T14:54:12.003Z,6.90
2019-05-07T14:56:40.042Z,6.00
2019-05-07T14:59:08.141Z,6.30
2019-05-07T15:01:36.341Z,6.17
2019-05-07T15:04:04.600Z,6.00
2019-05-07T15:06:32.630Z,6.60
2019-05-07T15:09:01.175Z,6.40
2019-05-07T15:11:28.845Z,5.70
2019-05-07T15:13:56.776Z,5.80
2019-05-07T15:16:24.740Z,5.90
2019-05-07T15:18:56.720Z,6.07
2019-05-07T15:21:24.394Z,5.87
2019-05-07T15:23:53.487Z,5.30
2019-05-07T15:26:22.095Z,5.03
2019-05-07T15:28:54.887Z,5.17
2019-05-07T15:31:32.067Z,4.93
2019-05-07T15:34:00.140Z,5.20
2019-05-07T15:36:27.808Z,5.10
2019-05-07T15:38:55.750Z,4.43
2019-05-07T15:41:24.104Z,4.97
2019-05-07T15:43:52.267Z,4.87
2019-05-07T15:46:22.380Z,5.17
2019-05-07T15:48:52.477Z,4.60
2019-05-07T15:51:22.415Z,5.20
2019-05-07T15:53:52.464Z,4.13
2019-05-07T15:56:21.876Z,4.60
2019-05-07T15:58:51.756Z,4.70
2019-05-07T16:01:22.007Z,4.80
2019-05-07T16:03:54.400Z,4.20
2019-05-07T16:06:21.890Z,4.70
2019-05-07T16:08:54.089Z,5.27
2019-05-07T16:11:23.198Z,4.67
2019-05-07T16:14:26.872Z,5.10
2019-05-07T16:17:02.435Z,5.10
2019-05-07T16:19:32.132Z,5.03
2019-05-07T16:22:04.812Z,5.30
2019-05-07T16:24:32.505Z,5.27
2019-05-07T16:27:02.632Z,5.30
2019-05-07T16:29:33.107Z,5.70
2019-05-07T16:32:02.270Z,5.33
2019-05-07T16:34:32.382Z,5.73
2019-05-07T16:37:03.527Z,5.27
2019-05-07T16:39:29.380Z,5.80
2019-05-07T16:41:57.360Z,5.80
2019-05-07T16:44:29.323Z,5.90
2019-05-07T16:46:57.288Z,5.03
2019-05-07T16:49:29.377Z,5.60
2019-05-07T16:51:57.640Z,5.67
2019-05-07T16:54:25.733Z,4.83
2019-05-07T16:57:12.302Z,5.37
2019-05-07T16:59:42.694Z,5.30
2019-05-07T17:02:17.944Z,4.90
2019-05-07T17:05:03.680Z,4.40
2019-05-07T17:07:32.109Z,4.53
2019-05-07T17:10:02.604Z,4.40
2019-05-07T17:12:32.422Z,4.83
2019-05-07T17:15:02.774Z,4.47
2019-05-07T17:17:32.021Z,4.40
2019-05-07T17:19:59.608Z,4.77
2019-05-07T17:22:27.497Z,4.70
2019-05-07T17:24:55.640Z,4.50
2019-05-07T17:27:23.545Z,4.60
2019-05-07T17:29:52.003Z,4.80
2019-05-07T17:32:19.985Z,4.90
2019-05-07T17:34:48.198Z,4.80
2019-05-07T17:37:16.252Z,4.90
2019-05-07T17:39:44.059Z,4.93
2019-05-07T17:42:11.938Z,4.87
2019-05-07T17:44:40.230Z,4.80
2019-05-07T17:47:08.492Z,5.57
2019-05-07T17:49:36.578Z,4.93
2019-05-07T17:52:05.957Z,4.80
2019-05-07T17:54:34.431Z,5.20
2019-05-07T17:57:02.724Z,5.10
2019-05-07T17:59:32.134Z,4.57
2019-05-07T18:02:19.207Z,4.57
2019-05-07T18:04:51.632Z,3.97
2019-05-07T18:07:18.581Z,4.20
2019-05-07T18:09:46.280Z,3.80
2019-05-07T18:12:14.895Z,3.87
2019-05-07T18:14:43.143Z,4.20
2019-05-07T18:17:38.956Z,3.80
2019-05-07T18:20:07.885Z,3.57
2019-05-07T18:22:35.524Z,3.70
2019-05-07T18:25:03.577Z,3.40
2019-05-07T18:27:32.995Z,3.70
2019-05-07T18:30:02.856Z,3.57
2019-05-07T18:32:39.006Z,3.70
2019-05-07T18:35:06.901Z,3.63
2019-05-07T18:37:36.540Z,3.70
2019-05-07T18:40:04.547Z,3.87
2019-05-07T18:42:32.830Z,4.03
2019-05-07T18:45:02.091Z,3.87
2019-05-07T18:47:29.991Z,3.90
2019-05-07T18:49:57.890Z,3.50
2019-05-07T18:52:26.353Z,3.70
2019-05-07T18:54:54.904Z,4.00
2019-05-07T18:57:23.245Z,3.70
2019-05-07T18:59:53.130Z,3.67
2019-05-07T19:02:22.548Z,3.40
2019-05-07T19:04:51.936Z,3.70
2019-05-07T19:07:20.390Z,3.67
2019-05-07T19:09:51.639Z,3.50
2019-05-07T19:12:22.347Z,3.90
2019-05-07T19:14:51.770Z,3.40
2019-05-07T19:17:21.744Z,4.40
2019-05-07T19:19:52.560Z,3.70
2019-05-07T19:22:22.195Z,4.20
2019-05-07T19:24:52.514Z,4.13
2019-05-07T19:27:22.052Z,3.60
2019-05-07T19:29:50.148Z,3.50
2019-05-07T19:32:18.608Z,3.80
2019-05-07T19:34:46.914Z,4.17
2019-05-07T19:37:14.874Z,3.83
2019-05-07T19:39:42.996Z,4.10
2019-05-07T19:42:12.101Z,4.40
2019-05-07T19:44:41.963Z,4.30
2019-05-07T19:47:09.464Z,3.77
2019-05-07T19:49:37.567Z,3.97
2019-05-07T19:52:05.229Z,4.10
2019-05-07T19:54:33.185Z,4.07
2019-05-07T19:57:02.746Z,4.20
2019-05-07T19:59:32.811Z,3.80
2019-05-07T20:02:02.671Z,4.00
2019-05-07T20:04:32.151Z,4.17
2019-05-07T20:07:00.316Z,3.80
2019-05-07T20:09:32.948Z,4.23
2019-05-07T20:12:02.692Z,3.87
2019-05-07T20:14:33.047Z,4.00
2019-05-07T20:17:00.524Z,3.87
2019-05-07T20:19:32.976Z,3.80
2019-05-07T20:22:02.073Z,4.20
2019-05-07T20:24:32.940Z,4.07
2019-05-07T20:27:00.409Z,4.30
2019-05-07T20:29:28.392Z,4.33
2019-05-07T20:31:56.721Z,4.03
2019-05-07T20:34:25.160Z,4.27
2019-05-07T20:36:53.211Z,3.83
2019-05-07T20:39:23.109Z,4.37
2019-05-07T20:41:52.652Z,4.47
2019-05-07T20:44:20.678Z,4.27
2019-05-07T20:46:48.681Z,4.47
2019-05-07T20:49:16.931Z,4.10
2019-05-07T20:51:45.102Z,4.07
2019-05-07T20:54:37.980Z,4.20
2019-05-07T20:57:13.281Z,4.30
2019-05-07T20:59:41.667Z,4.40
2019-05-07T21:02:11.876Z,4.27
2019-05-07T21:04:42.328Z,4.23
2019-05-07T21:07:11.794Z,4.33
2019-05-07T21:09:42.261Z,4.53
2019-05-07T21:12:12.621Z,4.60
2019-05-07T21:14:41.794Z,4.60
2019-05-07T21:17:12.000Z,4.30
2019-05-07T21:19:42.605Z,4.77
2019-05-07T21:22:13.019Z,4.53
2019-05-07T21:24:42.214Z,4.60
2019-05-07T21:27:12.157Z,4.97
2019-05-07T21:29:39.521Z,4.90
2019-05-07T21:32:08.023Z,4.40
2019-05-07T21:34:36.589Z,4.40
2019-05-07T21:37:04.433Z,4.43
2019-05-07T21:39:32.963Z,4.47
2019-05-07T21:42:01.617Z,4.73
2019-05-07T21:44:29.641Z,4.70
2019-05-07T21:46:57.940Z,4.43
2019-05-07T21:49:26.656Z,4.03
2019-05-07T21:51:55.033Z,4.50
2019-05-07T21:54:29.644Z,4.43
2019-05-07T21:57:27.929Z,4.50
2019-05-07T22:00:22.064Z,4.70
2019-05-07T22:02:52.433Z,4.60
2019-05-07T22:05:19.522Z,4.50
2019-05-07T22:07:47.844Z,5.03
2019-05-07T22:10:16.347Z,5.10
2019-05-07T22:12:44.723Z,5.00
2019-05-07T22:15:13.019Z,5.23
2019-05-07T22:17:44.141Z,5.20
2019-05-07T22:20:11.995Z,5.13
2019-05-07T22:22:42.250Z,4.93
2019-05-07T22:25:12.956Z,5.00
2019-05-07T22:27:42.104Z,5.03
2019-05-07T22:30:12.507Z,5.17
2019-05-07T22:32:47.898Z,5.20
2019-05-07T22:35:34.971Z,5.67
2019-05-07T22:38:03.854Z,6.00
2019-05-07T22:40:32.179Z,5.50
2019-05-07T22:43:02.074Z,5.13
2019-05-07T22:45:32.253Z,5.07
2019-05-07T22:47:59.942Z,5.00
2019-05-07T22:50:33.178Z,4.90
2019-05-07T22:53:01.992Z,4.93
2019-05-07T22:55:32.505Z,4.90
2019-05-07T22:58:08.013Z,4.87
2019-05-07T23:00:42.536Z,5.03
2019-05-07T23:03:12.189Z,5.33
2019-05-07T23:05:39.251Z,5.20
2019-05-07T23:08:07.385Z,5.23
2019-05-07T23:10:35.020Z,5.00
2019-05-07T23:13:03.334Z,4.90
2019-05-07T23:15:32.185Z,5.50
2019-05-07T23:18:04.097Z,5.03
2019-05-07T23:20:31.969Z,5.60
2019-05-07T23:23:00.065Z,5.63
2019-05-07T23:25:28.045Z,5.40
2019-05-07T23:27:56.101Z,5.20
2019-05-07T23:30:24.077Z,5.10
2019-05-07T23:32:52.804Z,5.47
2019-05-07T23:35:22.266Z,5.60
2019-05-07T23:37:52.791Z,5.27
2019-05-07T23:40:34.482Z,5.67
2019-05-07T23:43:03.852Z,4.97
2019-05-07T23:45:31.494Z,5.20
2019-05-07T23:47:59.902Z,5.07
2019-05-07T23:50:28.209Z,5.17
2019-05-07T23:52:56.650Z,5.37
2019-05-07T23:55:24.587Z,5.43
2019-05-07T23:57:52.712Z,5.13
